Time;durP1;ratioP1;P1;durP2;ratioP2;P2;SDS_P1;SDS_P2;PMS_P1;PMS_P2;Temp;Humidity;BMP_temperature;BMP_pressure;BME280_temperature;BME280_humidity;BME280_pressure;Samples;Min_cycle;Max_cycle;Signal;HPM_P1;HPM_P2
2022/05/27 00:00:21;;;;;;;7.80;2.50;;;26.30;40.50;;;;;;5031553;28;20109;-75
2022/05/27 00:02:50;;;;;;;10.02;2.67;;;26.30;40.70;;;;;;5031380;28;20025;-76
2022/05/27 00:05:19;;;;;;;18.92;2.45;;;26.30;40.60;;;;;;5031512;28;20109;-76
2022/05/27 00:07:45;;;;;;;5.93;2.10;;;26.20;40.40;;;;;;5030882;28;20027;-76
2022/05/27 00:10:14;;;;;;;5.80;1.75;;;26.20;40.40;;;;;;5011800;28;20118;-76
2022/05/27 00:12:40;;;;;;;8.45;2.22;;;26.20;40.30;;;;;;5020861;28;20028;-76
2022/05/27 00:15:08;;;;;;;12.43;2.38;;;26.20;40.20;;;;;;5030866;28;20344;-76
2022/05/27 00:17:34;;;;;;;8.88;2.63;;;26.10;40.50;;;;;;5030453;28;20036;-76
2022/05/27 00:20:00;;;;;;;6.70;2.22;;;26.10;40.40;;;;;;5031376;28;20036;-76
2022/05/27 00:22:27;;;;;;;9.30;2.92;;;26.10;40.30;;;;;;5030657;28;20056;-76
2022/05/27 00:24:53;;;;;;;9.23;2.45;;;26.10;40.30;;;;;;5030701;28;20037;-76
2022/05/27 00:27:19;;;;;;;9.63;2.55;;;26.00;40.40;;;;;;5030913;28;20445;-77
2022/05/27 00:29:45;;;;;;;;;;;26.10;39.90;;;;;;5030956;28;20351;-76
2022/05/27 00:32:11;;;;;;;11.95;2.40;;;26.00;40.50;;;;;;5030610;28;20000;-76
2022/05/27 00:34:38;;;;;;;5.50;1.98;;;26.00;40.40;;;;;;5030561;28;20032;-76
2022/05/27 00:37:05;;;;;;;8.18;2.00;;;25.90;40.50;;;;;;5030521;28;20048;-75
2022/05/27 00:39:32;;;;;;;12.52;2.17;;;25.90;40.80;;;;;;5030906;28;20105;-75
2022/05/27 00:41:59;;;;;;;11.27;2.22;;;25.70;40.70;;;;;;5011043;28;20045;-74
2022/05/27 00:44:25;;;;;;;10.25;1.90;;;25.60;40.80;;;;;;5011422;28;20537;-75
2022/05/27 00:46:52;;;;;;;6.70;1.38;;;25.60;41.10;;;;;;5030457;28;20101;-76
2022/05/27 00:49:25;;;;;;;13.10;2.20;;;25.60;41.20;;;;;;5030103;28;20117;-75
2022/05/27 00:51:54;;;;;;;9.27;2.17;;;25.50;41.10;;;;;;5030887;28;20087;-76
2022/05/27 00:54:24;;;;;;;14.68;2.03;;;25.50;41.10;;;;;;5030186;28;20385;-75
2022/05/27 00:56:57;;;;;;;8.82;1.88;;;25.50;41.00;;;;;;5030049;28;20079;-76
2022/05/27 00:59:36;;;;;;;10.55;2.10;;;25.50;41.30;;;;;;5030584;28;20163;-75
2022/05/27 01:02:02;;;;;;;8.27;1.83;;;25.40;41.60;;;;;;5030400;28;20029;-75
2022/05/27 01:04:29;;;;;;;;;;;25.30;42.00;;;;;;5030863;28;20040;-76
2022/05/27 01:06:55;;;;;;;5.38;1.70;;;25.10;42.10;;;;;;5030260;28;19911;-76
2022/05/27 01:09:23;;;;;;;7.45;1.60;;;25.00;42.50;;;;;;5030551;28;20052;-76
2022/05/27 01:12:10;;;;;;;9.10;1.42;;;24.90;42.30;;;;;;5030072;28;20505;-77
2022/05/27 01:14:48;;;;;;;8.68;1.73;;;24.90;42.30;;;;;;5030051;28;20028;-76
2022/05/27 01:17:14;;;;;;;13.35;2.00;;;24.90;42.30;;;;;;5030224;28;20030;-75
2022/05/27 01:22:52;;;;;;;5.07;1.58;;;24.80;42.30;;;;;;5030266;28;20497;-76
2022/05/27 01:25:46;;;;;;;12.95;1.60;;;24.80;42.50;;;;;;5030115;28;20037;-76
2022/05/27 01:28:34;;;;;;;6.55;1.85;;;24.80;42.30;;;;;;5030104;28;20026;-76
2022/05/27 01:31:23;;;;;;;7.75;1.65;;;24.90;42.00;;;;;;5030171;28;20506;-75
2022/05/27 01:34:25;;;;;;;9.00;1.88;;;25.00;41.80;;;;;;5030613;28;20022;-76
2022/05/27 01:37:10;;;;;;;9.65;2.15;;;25.20;41.60;;;;;;5028588;28;20057;-77
2022/05/27 01:39:48;;;;;;;6.22;1.75;;;25.30;41.10;;;;;;5030288;28;20022;-76
2022/05/27 01:42:26;;;;;;;6.22;1.70;;;25.40;40.30;;;;;;5029962;28;20442;-76
2022/05/27 01:45:15;;;;;;;12.27;2.13;;;25.60;40.20;;;;;;5029987;28;20052;-76
2022/05/27 01:48:02;;;;;;;9.93;1.90;;;25.50;40.40;;;;;;5030847;28;20393;-76
2022/05/27 01:50:37;;;;;;;6.47;1.73;;;25.70;39.70;;;;;;5033039;28;20056;-76
2022/05/27 01:53:25;;;;;;;33.60;2.13;;;25.70;39.70;;;;;;5032593;28;20026;-75
2022/05/27 01:56:27;;;;;;;6.82;1.95;;;25.70;39.90;;;;;;5033702;28;20491;-76
2022/05/27 01:59:09;;;;;;;5.40;1.60;;;25.70;40.70;;;;;;5034092;28;20199;-75
2022/05/27 02:01:45;;;;;;;10.27;1.83;;;25.70;40.40;;;;;;5017815;28;20048;-76
2022/05/27 02:04:19;;;;;;;5.65;1.50;;;25.60;40.80;;;;;;5033460;28;20022;-75
2022/05/27 02:06:59;;;;;;;6.20;1.95;;;25.40;41.40;;;;;;5014172;28;20105;-75
2022/05/27 02:09:40;;;;;;;8.85;1.73;;;25.30;41.20;;;;;;5024224;28;20101;-76
2022/05/27 02:12:12;;;;;;;8.70;1.70;;;25.40;41.00;;;;;;5033042;28;20068;-74
2022/05/27 02:14:45;;;;;;;12.88;1.70;;;25.40;41.00;;;;;;5031752;28;20040;-76
2022/05/27 02:17:16;;;;;;;7.57;1.80;;;25.40;41.10;;;;;;5033467;28;20492;-76
2022/05/27 02:20:06;;;;;;;6.40;1.63;;;25.40;40.80;;;;;;5033343;28;20029;-76
2022/05/27 02:22:41;;;;;;;10.23;1.83;;;25.40;40.90;;;;;;5033541;28;20025;-75
2022/05/27 02:25:13;;;;;;;10.05;1.80;;;25.30;41.40;;;;;;5032114;28;20025;-75
2022/05/27 02:28:04;;;;;;;5.60;1.52;;;25.20;41.60;;;;;;5032779;28;20029;-75
2022/05/27 02:30:32;;;;;;;9.98;1.90;;;25.10;41.80;;;;;;5022748;28;20044;-76
2022/05/27 02:36:18;;;;;;;7.28;1.88;;;24.90;42.10;;;;;;5033091;28;20037;-76
2022/05/27 02:38:44;;;;;;;5.93;1.27;;;24.80;42.20;;;;;;5032642;28;20061;-75
2022/05/27 02:41:13;;;;;;;6.68;1.30;;;24.70;42.30;;;;;;5031667;28;20147;-75
2022/05/27 02:43:58;;;;;;;8.43;1.73;;;24.60;42.20;;;;;;5030956;28;20034;-75
2022/05/27 02:46:30;;;;;;;9.95;1.63;;;24.80;41.60;;;;;;5031324;28;20034;-75
2022/05/27 02:49:21;;;;;;;4.13;1.52;;;24.80;41.30;;;;;;5031207;28;20021;-75
2022/05/27 02:52:06;;;;;;;6.40;1.48;;;24.80;41.10;;;;;;5031030;28;20029;-75
2022/05/27 02:54:57;;;;;;;6.32;1.45;;;24.90;40.80;;;;;;5030746;28;20121;-76
2022/05/27 02:57:37;;;;;;;7.82;1.73;;;25.00;40.90;;;;;;5020727;28;20095;-75
2022/05/27 03:00:07;;;;;;;11.40;2.05;;;25.10;40.80;;;;;;5031479;28;20065;-76
2022/05/27 03:02:33;;;;;;;8.55;1.30;;;25.10;40.50;;;;;;5032961;28;20053;-76
2022/05/27 03:05:01;;;;;;;5.95;1.60;;;25.20;40.20;;;;;;5032135;28;20485;-75
2022/05/27 03:07:39;;;;;;;6.93;1.40;;;25.30;39.90;;;;;;5032903;28;20025;-75
2022/05/27 03:10:56;;;;;;;6.10;1.40;;;25.30;40.40;;;;;;5030735;28;20041;-75
2022/05/27 03:13:50;;;;;;;5.70;1.30;;;25.00;41.10;;;;;;5019235;28;20049;-75
2022/05/27 03:16:32;;;;;;;16.15;1.70;;;24.80;42.10;;;;;;5031794;28;20087;-75
2022/05/27 03:19:14;;;;;;;7.72;1.60;;;24.50;43.70;;;;;;5032813;28;20411;-73
2022/05/27 03:22:03;;;;;;;7.28;1.55;;;24.30;44.00;;;;;;5029872;28;20188;-75
2022/05/27 03:25:03;;;;;;;8.25;1.27;;;24.20;43.90;;;;;;5033799;28;20025;-75
2022/05/27 03:27:42;;;;;;;7.40;1.48;;;24.50;42.70;;;;;;4972260;28;20039;-74
2022/05/27 03:30:21;;;;;;;7.47;1.55;;;24.80;41.80;;;;;;4967354;28;20145;-71
2022/05/27 03:32:55;;;;;;;5.72;1.45;;;24.90;41.90;;;;;;4954015;28;20118;-75
2022/05/27 03:35:33;;;;;;;9.88;1.63;;;24.90;42.30;;;;;;4970735;28;20037;-74
2022/05/27 03:38:01;;;;;;;5.15;1.38;;;24.80;42.80;;;;;;4972180;28;20049;-75
2022/05/27 03:40:35;;;;;;;4.93;1.52;;;24.80;43.00;;;;;;4972437;28;20405;-76
2022/05/27 03:43:02;;;;;;;9.05;1.70;;;24.70;44.00;;;;;;4952528;29;20095;-74
2022/05/27 03:45:28;;;;;;;8.88;2.08;;;24.60;44.40;;;;;;4962285;28;20118;-74
2022/05/27 03:47:54;;;;;;;10.32;1.55;;;24.60;44.00;;;;;;4971788;28;20558;-74
2022/05/27 03:50:25;;;;;;;8.02;1.73;;;24.60;44.00;;;;;;4971477;28;20050;-75
2022/05/27 03:52:53;;;;;;;4.18;1.58;;;24.60;43.90;;;;;;4972282;28;20031;-75
2022/05/27 03:55:23;;;;;;;6.88;1.67;;;24.60;43.60;;;;;;4971880;28;20085;-75
2022/05/27 03:57:49;;;;;;;3.88;1.30;;;24.60;42.90;;;;;;4971285;28;20043;-75
2022/05/27 04:00:17;;;;;;;3.50;1.48;;;24.80;41.30;;;;;;4971349;28;20085;-74
2022/05/27 04:02:44;;;;;;;7.63;1.80;;;25.10;39.60;;;;;;4972221;28;20310;-75
2022/05/27 04:05:13;;;;;;;5.85;1.50;;;25.40;38.80;;;;;;5027396;28;20069;-75
2022/05/27 04:07:39;;;;;;;2.95;1.20;;;25.60;37.60;;;;;;5032469;28;20032;-75
2022/05/27 04:10:08;;;;;;;4.00;1.23;;;25.90;37.20;;;;;;5032131;28;20444;-75
2022/05/27 04:12:35;;;;;;;9.38;1.60;;;26.10;37.00;;;;;;5030643;28;20026;-75
2022/05/27 04:15:03;;;;;;;4.65;1.25;;;26.20;36.90;;;;;;5031734;28;20033;-74
2022/05/27 04:17:31;;;;;;;8.13;1.50;;;26.10;37.40;;;;;;5031009;28;20033;-75
2022/05/27 04:20:07;;;;;;;8.13;1.38;;;26.10;36.70;;;;;;5032990;28;20132;-75
2022/05/27 04:22:33;;;;;;;6.47;1.40;;;26.20;36.40;;;;;;5032550;28;20031;-76
2022/05/27 04:25:00;;;;;;;4.78;1.58;;;26.20;37.20;;;;;;5032899;28;20014;-73
2022/05/27 04:27:26;;;;;;;10.15;1.33;;;26.30;36.30;;;;;;5032495;28;20381;-76
2022/05/27 04:29:53;;;;;;;;;;;26.40;36.30;;;;;;5033563;28;20029;-77
2022/05/27 04:32:21;;;;;;;5.32;1.23;;;26.30;36.00;;;;;;5032527;28;20340;-77
2022/05/27 04:34:52;;;;;;;7.90;1.50;;;26.40;35.20;;;;;;5033159;28;20382;-78
2022/05/27 04:37:19;;;;;;;7.40;1.38;;;26.50;35.00;;;;;;5032453;28;20055;-75
2022/05/27 04:39:45;;;;;;;9.05;1.60;;;26.70;35.10;;;;;;5032671;28;20033;-75
2022/05/27 04:42:11;;;;;;;8.57;1.45;;;26.60;35.60;;;;;;5033136;28;20037;-75
2022/05/27 04:44:38;;;;;;;5.78;1.60;;;26.60;35.60;;;;;;5032043;28;20033;-75
2022/05/27 04:47:05;;;;;;;6.28;1.60;;;26.60;35.60;;;;;;5032445;28;20025;-76
2022/05/27 04:52:17;;;;;;;7.75;1.70;;;26.50;35.80;;;;;;5033170;28;20079;-76
2022/05/27 04:54:43;;;;;;;6.55;1.67;;;26.40;36.30;;;;;;5032664;28;20108;-76
2022/05/27 04:57:15;;;;;;;7.10;1.50;;;26.30;36.70;;;;;;5032250;28;20033;-76
2022/05/27 04:59:41;;;;;;;8.85;1.60;;;26.20;37.30;;;;;;5032486;28;20017;-76
2022/05/27 05:02:08;;;;;;;6.97;1.63;;;26.10;38.20;;;;;;5032752;28;20029;-76
2022/05/27 05:04:34;;;;;;;9.57;1.80;;;25.90;38.40;;;;;;5032898;28;20028;-76
2022/05/27 05:07:07;;;;;;;6.25;1.63;;;25.90;38.90;;;;;;5032447;28;20029;-76
2022/05/27 05:09:35;;;;;;;6.63;1.70;;;25.90;39.10;;;;;;5031783;28;20083;-76
2022/05/27 05:12:02;;;;;;;8.43;1.40;;;25.80;38.80;;;;;;5031987;28;20041;-77
2022/05/27 05:14:28;;;;;;;11.20;1.90;;;25.70;39.90;;;;;;5032515;28;20025;-76
2022/05/27 05:16:54;;;;;;;10.00;2.00;;;25.60;40.10;;;;;;5032220;28;20083;-76
2022/05/27 05:19:20;;;;;;;6.82;1.70;;;25.50;40.70;;;;;;5033407;28;20060;-76
2022/05/27 05:21:46;;;;;;;7.28;1.85;;;25.50;41.20;;;;;;5032305;28;20022;-75
2022/05/27 05:24:12;;;;;;;6.50;1.55;;;25.70;41.20;;;;;;5036379;28;20096;-76
2022/05/27 05:26:38;;;;;;;7.15;2.03;;;26.30;40.30;;;;;;5034996;28;20099;-77
2022/05/27 05:29:06;;;;;;;4.53;1.83;;;26.70;38.90;;;;;;5035712;28;20026;-76
2022/05/27 05:31:33;;;;;;;8.63;2.17;;;26.90;38.80;;;;;;5036035;28;20029;-76
2022/05/27 05:33:59;;;;;;;7.90;2.33;;;27.30;38.50;;;;;;5035731;28;20381;-76
2022/05/27 05:36:30;;;;;;;8.38;2.22;;;27.80;37.50;;;;;;5033363;28;20065;-76
2022/05/27 05:38:57;;;;;;;7.25;2.40;;;28.30;37.10;;;;;;5033694;28;20398;-76
2022/05/27 05:41:29;;;;;;;7.60;2.30;;;28.30;37.30;;;;;;5033675;28;20029;-76
2022/05/27 05:43:56;;;;;;;4.70;1.90;;;28.10;37.20;;;;;;5031490;28;20056;-77
2022/05/27 05:46:23;;;;;;;6.22;2.38;;;28.60;36.70;;;;;;5033102;28;20029;-76
2022/05/27 05:48:49;;;;;;;8.80;2.25;;;29.30;36.80;;;;;;5035139;28;20497;-75
2022/05/27 05:51:17;;;;;;;14.75;1.75;;;29.60;36.10;;;;;;5033591;28;20176;-75
2022/05/27 05:53:43;;;;;;;9.10;1.75;;;29.60;35.10;;;;;;5034161;28;20037;-75
2022/05/27 05:56:09;;;;;;;8.70;2.20;;;29.60;34.30;;;;;;5031880;28;20033;-75
2022/05/27 05:58:35;;;;;;;;;;;29.60;35.00;;;;;;5033443;28;20120;-76
2022/05/27 06:01:04;;;;;;;;;;;29.90;35.40;;;;;;5032706;28;20380;-75
2022/05/27 06:03:30;;;;;;;7.75;1.60;;;30.00;34.50;;;;;;5032869;28;19909;-76
2022/05/27 06:05:56;;;;;;;7.22;1.58;;;30.00;34.80;;;;;;5031707;28;20033;-75
2022/05/27 06:08:22;;;;;;;13.07;1.42;;;29.90;34.10;;;;;;5033132;28;20037;-76
2022/05/27 06:11:41;;;;;;;11.52;1.88;;;29.40;34.60;;;;;;5032047;28;20045;-76
2022/05/27 06:14:07;;;;;;;8.10;1.90;;;29.00;35.50;;;;;;5031951;28;20041;-76
2022/05/27 06:16:33;;;;;;;6.72;1.63;;;28.70;36.50;;;;;;5031276;28;20032;-76
2022/05/27 06:19:00;;;;;;;6.18;2.00;;;28.50;35.70;;;;;;5026104;28;20063;-76
2022/05/27 06:21:26;;;;;;;;;;;28.20;37.00;;;;;;5034594;28;20021;-76
2022/05/27 06:23:52;;;;;;;8.18;1.70;;;27.90;37.30;;;;;;5034181;28;19905;-78
2022/05/27 06:26:46;;;;;;;10.80;1.85;;;27.80;37.40;;;;;;5034518;28;20032;-76
2022/05/27 06:34:42;;;;;;;7.97;1.42;;;27.50;38.10;;;;;;5034130;28;20544;-87
2022/05/27 06:37:17;;;;;;;7.45;1.73;;;27.50;38.40;;;;;;5033312;28;20535;-80
2022/05/27 06:39:44;;;;;;;8.80;1.67;;;27.50;37.80;;;;;;5031199;28;20034;-81
2022/05/27 06:42:11;;;;;;;;;;;27.60;37.70;;;;;;5034845;28;20029;-85
2022/05/27 06:44:38;;;;;;;7.70;1.83;;;27.80;37.30;;;;;;5033894;28;19928;-81
2022/05/27 06:47:05;;;;;;;;;;;28.00;36.90;;;;;;5015317;28;20037;-86
2022/05/27 06:49:32;;;;;;;13.32;2.22;;;28.10;37.30;;;;;;5033603;28;19996;-92
2022/05/27 06:51:59;;;;;;;8.40;1.75;;;28.10;37.00;;;;;;5032866;28;20036;-89
2022/05/27 06:54:25;;;;;;;8.85;1.75;;;28.30;36.90;;;;;;5031014;28;20033;-83
2022/05/27 06:57:13;;;;;;;10.13;2.50;;;28.70;37.00;;;;;;5032783;28;20035;-85
2022/05/27 06:59:39;;;;;;;9.57;2.00;;;29.80;37.00;;;;;;5033422;28;20397;-84
2022/05/27 07:02:06;;;;;;;10.35;2.05;;;31.00;35.20;;;;;;5033533;28;20037;-83
2022/05/27 07:04:32;;;;;;;13.15;1.83;;;31.50;34.40;;;;;;5032312;28;20025;-84
2022/05/27 07:06:59;;;;;;;11.55;2.08;;;32.30;34.30;;;;;;5033224;28;20025;-84
2022/05/27 07:09:25;;;;;;;10.57;1.70;;;33.10;33.80;;;;;;5013932;28;20026;-83
2022/05/27 07:11:55;;;;;;;13.43;2.15;;;34.00;32.60;;;;;;5024404;28;20150;-84
2022/05/27 07:14:21;;;;;;;8.57;1.83;;;33.50;32.90;;;;;;5033541;28;20104;-86
2022/05/27 07:16:48;;;;;;;;;;;33.70;33.40;;;;;;5032601;28;20033;-85
2022/05/27 07:19:19;;;;;;;8.00;2.03;;;33.50;33.10;;;;;;5024327;28;19909;-83
2022/05/27 07:21:45;;;;;;;11.95;1.90;;;32.90;33.90;;;;;;5032230;28;20339;-86
2022/05/27 07:24:14;;;;;;;12.25;2.10;;;32.30;34.80;;;;;;5030905;28;20557;-88
2022/05/27 07:26:42;;;;;;;11.05;2.40;;;31.40;35.80;;;;;;5033064;28;20425;-88
2022/05/27 07:29:08;;;;;;;10.18;2.13;;;31.00;36.90;;;;;;5033855;28;20463;-88
2022/05/27 07:31:36;;;;;;;11.50;2.15;;;31.00;36.90;;;;;;5034473;28;20375;-88
2022/05/27 07:34:03;;;;;;;8.70;2.05;;;30.90;37.70;;;;;;5032406;28;20021;-89
2022/05/27 07:36:29;;;;;;;16.77;2.20;;;30.40;38.10;;;;;;5033382;28;20036;-89
2022/05/27 07:39:45;;;;;;;11.15;2.00;;;30.00;38.60;;;;;;5034073;28;20029;-88
2022/05/27 07:42:12;;;;;;;7.97;1.80;;;29.80;39.10;;;;;;5033881;28;20129;-88
2022/05/27 07:44:38;;;;;;;8.30;2.03;;;29.50;39.20;;;;;;5033022;28;20049;-88
2022/05/27 07:47:05;;;;;;;5.30;1.88;;;29.10;40.00;;;;;;5033649;28;20109;-88
2022/05/27 07:49:31;;;;;;;6.95;1.75;;;28.80;40.10;;;;;;5030741;28;20035;-90
2022/05/27 07:52:03;;;;;;;8.07;1.75;;;28.70;40.50;;;;;;5027985;28;20060;-74
2022/05/27 07:54:30;;;;;;;8.98;2.10;;;28.40;41.40;;;;;;5031857;28;20091;-78
2022/05/27 07:56:56;;;;;;;;;;;28.10;42.60;;;;;;5031362;28;20045;-83
2022/05/27 07:59:22;;;;;;;12.55;1.90;;;27.80;45.40;;;;;;5031917;28;20360;-72
2022/05/27 08:01:48;;;;;;;15.18;2.20;;;27.30;48.10;;;;;;5030759;28;20037;-92
2022/05/27 08:04:14;;;;;;;12.50;1.52;;;27.10;48.60;;;;;;5032201;28;20087;-81
2022/05/27 08:06:40;;;;;;;11.93;2.30;;;27.00;48.20;;;;;;5031620;28;20037;-76
2022/05/27 08:09:09;;;;;;;6.45;1.30;;;27.00;46.80;;;;;;5031826;28;20021;-79
2022/05/27 08:11:37;;;;;;;9.40;1.90;;;27.20;45.90;;;;;;5031640;28;20060;-81
2022/05/27 08:14:03;;;;;;;6.63;1.80;;;27.40;44.80;;;;;;5030063;28;20028;-78
2022/05/27 08:16:33;;;;;;;8.82;1.90;;;27.70;43.50;;;;;;5031561;28;20040;-79
2022/05/27 08:19:00;;;;;;;9.65;2.10;;;27.90;43.10;;;;;;5031931;28;20020;-80
2022/05/27 08:21:26;;;;;;;14.77;2.20;;;28.00;42.70;;;;;;5032378;28;20030;-77
2022/05/27 08:23:52;;;;;;;11.50;2.33;;;28.20;42.90;;;;;;5029922;28;20427;-79
2022/05/27 08:26:18;;;;;;;;;;;28.30;42.80;;;;;;5023181;28;20083;-82
2022/05/27 08:28:44;;;;;;;;;;;28.50;41.70;;;;;;5031856;28;19909;-79
2022/05/27 08:31:10;;;;;;;;;;;28.60;40.80;;;;;;5029511;28;19917;-89
2022/05/27 08:39:15;;;;;;;9.93;2.00;;;28.60;41.80;;;;;;5023405;28;20519;-94
2022/05/27 08:41:49;;;;;;;9.88;2.30;;;28.70;40.80;;;;;;5033165;28;20025;-91
2022/05/27 08:44:33;;;;;;;8.35;1.98;;;28.80;41.20;;;;;;5033170;28;20053;-90
2022/05/27 08:47:14;;;;;;;6.60;1.67;;;28.80;41.40;;;;;;5034838;28;20102;-93
2022/05/27 08:49:46;;;;;;;8.65;1.88;;;28.80;40.60;;;;;;5035956;28;20025;-94
2022/05/27 08:52:31;;;;;;;14.98;2.08;;;28.80;39.50;;;;;;5033857;28;20347;-92
2022/05/27 08:55:05;;;;;;;12.43;2.17;;;28.90;39.80;;;;;;5035128;28;20480;-94
2022/05/27 09:00:27;;;;;;;11.55;2.00;;;29.20;38.40;;;;;;5040672;28;20056;-93
2022/05/27 09:02:53;;;;;;;9.00;1.83;;;29.50;38.10;;;;;;5038733;28;20025;-93
2022/05/27 09:05:27;;;;;;;10.85;1.98;;;29.50;38.40;;;;;;5038921;28;20368;-93
2022/05/27 09:08:10;;;;;;;13.40;1.60;;;29.60;38.60;;;;;;5037407;28;20029;-92
2022/05/27 09:10:48;;;;;;;8.60;1.63;;;29.60;38.00;;;;;;5042607;28;20037;-95
2022/05/27 09:13:23;;;;;;;5.65;1.50;;;29.60;37.70;;;;;;5039839;28;20022;-94
2022/05/27 09:16:00;;;;;;;12.27;1.83;;;29.50;38.10;;;;;;5044827;28;20033;-94
2022/05/27 09:18:39;;;;;;;8.63;1.90;;;29.50;38.00;;;;;;5044157;28;20105;-94
2022/05/27 09:21:42;;;;;;;10.68;1.80;;;29.30;38.40;;;;;;5039338;28;20054;-91
2022/05/27 09:24:35;;;;;;;5.28;1.40;;;29.20;38.70;;;;;;5041257;28;20075;-94
2022/05/27 09:27:20;;;;;;;6.10;1.60;;;29.20;39.20;;;;;;5037847;28;20021;-94
2022/05/27 09:29:53;;;;;;;6.20;1.70;;;29.10;39.10;;;;;;5037385;28;20548;-94
2022/05/27 09:32:26;;;;;;;10.75;2.08;;;29.10;40.00;;;;;;5037576;28;20506;-94
2022/05/27 09:34:55;;;;;;;8.75;2.30;;;29.00;40.80;;;;;;5035928;28;20371;-93
2022/05/27 09:37:27;;;;;;;14.98;2.40;;;28.90;41.50;;;;;;5043505;28;20056;-93
2022/05/27 09:40:00;;;;;;;13.82;2.70;;;28.90;41.00;;;;;;5041323;28;20064;-94
2022/05/27 09:42:38;;;;;;;10.55;2.30;;;29.00;41.50;;;;;;5034758;28;20132;-87
2022/05/27 09:45:06;;;;;;;14.70;2.85;;;28.80;42.10;;;;;;5034078;28;20079;-91
2022/05/27 09:47:34;;;;;;;16.10;2.70;;;28.70;43.60;;;;;;5032370;28;20021;-83
2022/05/27 09:50:04;;;;;;;7.57;2.13;;;28.40;44.30;;;;;;5033490;28;20091;-81
2022/05/27 09:52:36;;;;;;;13.27;2.80;;;28.30;44.90;;;;;;5034714;28;20022;-81
2022/05/27 09:55:16;;;;;;;11.45;2.75;;;28.00;45.20;;;;;;5033793;28;20025;-79
2022/05/27 09:58:06;;;;;;;10.38;2.70;;;28.00;45.00;;;;;;5030538;28;20041;-73
2022/05/27 10:00:50;;;;;;;12.75;2.50;;;28.10;44.60;;;;;;5034068;28;20025;-72
2022/05/27 10:03:20;;;;;;;11.80;2.53;;;28.40;44.70;;;;;;5035016;28;20071;-78
2022/05/27 10:05:57;;;;;;;10.60;2.30;;;28.60;44.10;;;;;;5034111;28;20041;-78
2022/05/27 10:08:29;;;;;;;11.80;2.20;;;28.60;44.30;;;;;;5032449;28;20017;-78
2022/05/27 10:11:18;;;;;;;10.68;2.10;;;28.60;44.40;;;;;;5033357;28;20208;-81
2022/05/27 10:13:46;;;;;;;11.15;2.20;;;28.60;44.10;;;;;;5032674;28;20022;-81
2022/05/27 10:16:21;;;;;;;11.25;2.50;;;28.70;42.90;;;;;;5035218;28;20029;-76
2022/05/27 10:18:48;;;;;;;11.32;2.45;;;28.80;44.40;;;;;;5034901;28;20021;-78
2022/05/27 10:21:19;;;;;;;9.98;2.35;;;28.60;45.00;;;;;;5016447;28;20034;-77
2022/05/27 10:23:54;;;;;;;13.00;2.55;;;28.50;45.90;;;;;;5013683;28;20029;-82
2022/05/27 10:26:29;;;;;;;14.45;2.20;;;28.60;44.80;;;;;;5012946;28;20041;-80
2022/05/27 10:29:16;;;;;;;6.40;1.58;;;28.80;44.70;;;;;;5012982;28;20022;-83
2022/05/27 10:31:57;;;;;;;8.32;2.05;;;28.90;43.90;;;;;;5018526;28;20183;-83
2022/05/27 10:34:41;;;;;;;12.50;2.08;;;28.90;43.90;;;;;;5034050;28;20018;-80
2022/05/27 10:37:28;;;;;;;18.13;2.50;;;29.10;42.70;;;;;;5034516;28;20033;-75
2022/05/27 10:40:22;;;;;;;14.05;2.72;;;29.30;42.90;;;;;;5034961;28;20021;-81
2022/05/27 10:43:05;;;;;;;80.20;6.07;;;29.50;45.40;;;;;;5034848;28;20489;-83
2022/05/27 10:45:41;;;;;;;27.70;3.20;;;29.40;52.30;;;;;;5034934;28;20036;-85
2022/05/27 10:48:29;;;;;;;20.58;3.95;;;29.00;54.30;;;;;;5034377;28;20040;-86
2022/05/27 10:51:42;;;;;;;23.58;3.63;;;28.70;55.00;;;;;;5034436;28;20161;-81
2022/05/27 10:54:46;;;;;;;23.55;2.95;;;28.50;55.20;;;;;;5034805;28;20018;-85
2022/05/27 11:03:49;;;;;;;17.15;3.20;;;29.10;51.10;;;;;;5074140;28;20121;-87
2022/05/27 11:06:44;;;;;;;21.92;3.08;;;29.50;51.40;;;;;;5073537;28;20036;-81
2022/05/27 11:09:43;;;;;;;18.90;3.58;;;29.70;50.40;;;;;;5055794;28;20544;-85
2022/05/27 11:16:13;;;;;;;15.02;3.70;;;30.10;49.20;;;;;;5073506;28;20542;-81
2022/05/27 11:19:39;;;;;;;16.90;3.15;;;30.30;48.50;;;;;;5074393;28;20107;-78
2022/05/27 11:22:27;;;;;;;19.38;3.65;;;30.40;49.70;;;;;;4992180;28;20061;-79
2022/05/27 11:25:09;;;;;;;22.55;3.38;;;30.60;50.30;;;;;;4975590;28;20073;-85
2022/05/27 11:27:50;;;;;;;20.77;3.55;;;30.60;51.10;;;;;;4975501;28;20604;-82
2022/05/27 11:30:34;;;;;;;18.42;3.28;;;30.50;51.90;;;;;;4976100;28;20143;-81
2022/05/27 11:33:27;;;;;;;21.23;4.43;;;30.30;52.40;;;;;;4975433;28;20154;-80
2022/05/27 11:36:10;;;;;;;17.92;3.35;;;30.20;52.80;;;;;;4992083;28;20034;-85
2022/05/27 11:38:52;;;;;;;19.00;3.50;;;30.30;53.00;;;;;;4989313;28;20038;-86
2022/05/27 11:42:10;;;;;;;15.38;3.28;;;30.40;52.50;;;;;;4987776;28;20095;-81
2022/05/27 11:44:41;;;;;;;11.45;2.85;;;30.90;52.60;;;;;;4972510;28;20033;-81
2022/05/27 11:47:36;;;;;;;20.10;3.05;;;31.20;51.50;;;;;;4982830;28;20541;-82
2022/05/27 11:50:56;;;;;;;19.40;3.38;;;31.30;51.10;;;;;;4964818;28;20046;-79
2022/05/27 11:53:36;;;;;;;19.02;3.00;;;31.40;51.00;;;;;;4933190;29;20044;-81
2022/05/27 11:56:24;;;;;;;12.70;3.53;;;31.40;52.80;;;;;;4971287;28;20061;-81
2022/05/27 11:59:04;;;;;;;14.32;3.13;;;31.60;51.30;;;;;;4994200;28;20443;-84
2022/05/27 12:01:35;;;;;;;18.60;3.10;;;31.70;50.90;;;;;;5010818;28;20038;-82
2022/05/27 12:04:30;;;;;;;23.80;3.65;;;31.70;51.70;;;;;;5011274;28;20116;-82
2022/05/27 12:07:24;;;;;;;16.33;3.13;;;31.80;52.10;;;;;;5011484;28;20052;-82
2022/05/27 12:10:13;;;;;;;19.00;3.60;;;31.80;55.30;;;;;;5011739;28;20037;-81
2022/05/27 12:12:51;;;;;;;22.88;3.78;;;31.90;53.00;;;;;;4994957;28;20029;-83
2022/05/27 12:15:36;;;;;;;15.45;3.80;;;32.00;52.90;;;;;;5011881;28;20497;-81
2022/05/27 12:18:08;;;;;;;18.63;3.30;;;32.10;53.10;;;;;;5011446;28;20056;-88
2022/05/27 12:20:36;;;;;;;16.85;3.22;;;32.20;53.10;;;;;;5011653;28;20029;-86
2022/05/27 12:23:06;;;;;;;17.35;3.20;;;32.20;52.70;;;;;;5011623;28;20113;-85
2022/05/27 12:25:41;;;;;;;20.00;3.90;;;32.00;52.90;;;;;;4994825;28;20041;-79
2022/05/27 12:28:08;;;;;;;22.38;4.20;;;31.80;53.30;;;;;;5007344;28;20059;-80
2022/05/27 12:30:40;;;;;;;16.95;3.35;;;31.80;53.50;;;;;;5033129;28;20457;-80
2022/05/27 12:33:13;;;;;;;13.98;3.50;;;32.00;53.60;;;;;;5033779;28;20121;-77
2022/05/27 12:35:39;;;;;;;19.75;3.63;;;32.00;54.10;;;;;;5034000;28;20025;-84
2022/05/27 12:38:29;;;;;;;15.93;3.63;;;32.10;54.30;;;;;;5048069;28;20399;-82
2022/05/27 12:40:59;;;;;;;16.60;3.92;;;32.30;54.80;;;;;;5019919;28;20049;-81
2022/05/27 12:43:39;;;;;;;17.02;3.42;;;32.30;54.90;;;;;;5011178;28;20034;-81
2022/05/27 12:46:05;;;;;;;17.73;4.03;;;32.10;55.00;;;;;;5011656;28;20037;-81
2022/05/27 12:48:45;;;;;;;22.38;3.83;;;32.00;56.40;;;;;;5011490;28;20084;-81
2022/05/27 12:51:21;;;;;;;14.98;2.83;;;32.00;56.80;;;;;;5010920;28;20029;-82
2022/05/27 12:53:50;;;;;;;22.88;3.53;;;32.00;56.50;;;;;;5011275;28;20061;-81
2022/05/27 13:02:34;;;;;;;13.85;3.38;;;31.70;56.70;;;;;;5029956;28;20056;-81
2022/05/27 13:05:03;;;;;;;22.50;3.53;;;31.90;56.40;;;;;;5027973;28;20092;-81
2022/05/27 13:07:35;;;;;;;16.55;3.20;;;31.90;57.30;;;;;;5032039;28;20448;-81
2022/05/27 13:10:16;;;;;;;15.30;3.35;;;32.00;57.60;;;;;;5032492;28;20115;-81
2022/05/27 13:12:42;;;;;;;16.70;3.63;;;32.00;57.60;;;;;;5031522;28;20100;-82
2022/05/27 13:15:32;;;;;;;19.00;3.25;;;31.80;57.90;;;;;;5031889;28;20581;-86
2022/05/27 13:18:21;;;;;;;19.42;3.30;;;31.70;57.60;;;;;;5031805;28;20025;-78
2022/05/27 13:21:19;;;;;;;15.32;3.25;;;31.40;58.20;;;;;;5027632;28;20049;-73
2022/05/27 13:24:00;;;;;;;19.00;3.22;;;30.90;58.40;;;;;;5031917;28;20036;-76
2022/05/27 13:26:45;;;;;;;22.80;3.22;;;30.40;58.20;;;;;;5031910;28;20037;-78
2022/05/27 13:29:39;;;;;;;21.42;3.20;;;30.10;58.00;;;;;;5032102;28;20026;-76
2022/05/27 13:32:12;;;;;;;11.45;3.03;;;29.70;59.50;;;;;;5049462;28;20445;-78
2022/05/27 13:35:20;;;;;;;18.67;3.10;;;29.60;59.90;;;;;;5022094;28;20033;-77
2022/05/27 13:37:56;;;;;;;11.30;2.60;;;29.50;59.20;;;;;;5030414;28;20061;-78
2022/05/27 13:40:32;;;;;;;19.05;3.20;;;29.10;58.90;;;;;;5032486;28;20029;-76
2022/05/27 13:43:28;;;;;;;18.23;3.00;;;28.70;60.10;;;;;;5032754;28;20029;-78
2022/05/27 13:46:11;;;;;;;14.90;3.30;;;28.40;60.70;;;;;;5016716;28;20083;-79
2022/05/27 13:48:43;;;;;;;19.48;3.47;;;28.60;61.80;;;;;;5031276;28;20040;-79
2022/05/27 13:51:12;;;;;;;13.93;3.00;;;28.90;62.80;;;;;;5035855;28;20041;-79
2022/05/27 13:53:40;;;;;;;12.25;3.38;;;29.10;63.40;;;;;;5035017;28;20022;-79
2022/05/27 13:56:15;;;;;;;16.83;3.00;;;29.10;61.90;;;;;;5035212;28;20045;-79
2022/05/27 13:58:56;;;;;;;19.20;3.20;;;28.40;63.30;;;;;;5033224;28;20025;-78
2022/05/27 14:01:55;;;;;;;19.75;3.25;;;28.40;64.10;;;;;;5067520;28;20504;-79
2022/05/27 14:04:32;;;;;;;18.80;3.03;;;28.50;64.80;;;;;;5073591;28;20349;-80